IW78KF EBCI-EBCI
Flight info
| Callsign | IW78KF |
|---|---|
| Flight time | 0h 30m |
| Altitude | |
| Route | |
| Aircraft | DR40 |
Departure
| Time | 2026-05-04 15:15 |
|---|---|
| Airport | Brussels South Charleroi Airport (EBCI) |
Arrival
| Time | 2026-05-04 15:46 |
|---|---|
| Airport | Brussels South Charleroi Airport (EBCI) |
| Time | Latitude | Longitude | Altitude | Speed | Heading |
|---|---|---|---|---|---|
| 2026-05-04 15:03 | 50.45948 | 4.45854 | 603 ft | 0 kts | 245° |
| 2026-05-04 15:09 | 50.45947 | 4.45849 | 603 ft | 2 kts | 248° |
| 2026-05-04 15:10 | 50.46017 | 4.45799 | 604 ft | 4 kts | 54° |
| 2026-05-04 15:10 | 50.46044 | 4.45906 | 602 ft | 21 kts | 75° |
| 2026-05-04 15:10 | 50.46150 | 4.46250 | 595 ft | 0 kts | 346° |
| 2026-05-04 15:11 | 50.46155 | 4.46248 | 595 ft | 2 kts | 339° |
| 2026-05-04 15:11 | 50.46158 | 4.46246 | 595 ft | 0 kts | 334° |
| 2026-05-04 15:11 | 50.46169 | 4.46237 | 595 ft | 0 kts | 332° |
| 2026-05-04 15:13 | 50.46180 | 4.46229 | 595 ft | 7 kts | 332° |
| 2026-05-04 15:13 | 50.46230 | 4.46138 | 597 ft | 13 kts | 270° |
| 2026-05-04 15:13 | 50.46224 | 4.46102 | 597 ft | 0 kts | 245° |
| 2026-05-04 15:14 | 50.46210 | 4.46053 | 598 ft | 22 kts | 244° |
| 2026-05-04 15:14 | 50.46082 | 4.45580 | 644 ft | 62 kts | 244° |
| 2026-05-04 15:14 | 50.45899 | 4.44935 | 805 ft | 71 kts | 236° |
| 2026-05-04 15:15 | 50.45646 | 4.44236 | 998 ft | 77 kts | 232° |
| 2026-05-04 15:15 | 50.45291 | 4.43668 | 1217 ft | 76 kts | 195° |
| 2026-05-04 15:15 | 50.44759 | 4.43472 | 1422 ft | 80 kts | 182° |
| 2026-05-04 15:16 | 50.43665 | 4.43627 | 1926 ft | 76 kts | 158° |
| 2026-05-04 15:16 | 50.43411 | 4.43794 | 2060 ft | 75 kts | 147° |
| 2026-05-04 15:16 | 50.42653 | 4.44918 | 2361 ft | 90 kts | 112° |
| 2026-05-04 15:17 | 50.42447 | 4.45845 | 2585 ft | 90 kts | 104° |
| 2026-05-04 15:17 | 50.43165 | 4.47351 | 2906 ft | 106 kts | 46° |
| 2026-05-04 15:17 | 50.43572 | 4.48282 | 3106 ft | 103 kts | 58° |
| 2026-05-04 15:18 | 50.43960 | 4.49254 | 3261 ft | 108 kts | 60° |
| 2026-05-04 15:18 | 50.44369 | 4.50292 | 3319 ft | 116 kts | 60° |
| 2026-05-04 15:18 | 50.44778 | 4.51348 | 3281 ft | 109 kts | 63° |
| 2026-05-04 15:19 | 50.45440 | 4.53301 | 3168 ft | 96 kts | 65° |
| 2026-05-04 15:19 | 50.45616 | 4.53806 | 3122 ft | 95 kts | 64° |
| 2026-05-04 15:19 | 50.46194 | 4.55476 | 2930 ft | 98 kts | 65° |
| 2026-05-04 15:20 | 50.46697 | 4.56185 | 2779 ft | 108 kts | 19° |
| 2026-05-04 15:20 | 50.47458 | 4.56073 | 2657 ft | 112 kts | 342° |
| 2026-05-04 15:20 | 50.48154 | 4.55607 | 2617 ft | 106 kts | 331° |
| 2026-05-04 15:20 | 50.48658 | 4.54802 | 2528 ft | 106 kts | 290° |
| 2026-05-04 15:21 | 50.48611 | 4.53643 | 2300 ft | 116 kts | 242° |
| 2026-05-04 15:21 | 50.48198 | 4.52549 | 2126 ft | 116 kts | 237° |
| 2026-05-04 15:21 | 50.47487 | 4.50365 | 1892 ft | 113 kts | 242° |
| 2026-05-04 15:22 | 50.47136 | 4.49230 | 1712 ft | 116 kts | 242° |
| 2026-05-04 15:22 | 50.46801 | 4.48114 | 1652 ft | 108 kts | 241° |
| 2026-05-04 15:22 | 50.46238 | 4.46132 | 1736 ft | 100 kts | 242° |
| 2026-05-04 15:23 | 50.45947 | 4.45116 | 1934 ft | 104 kts | 241° |
| 2026-05-04 15:23 | 50.45637 | 4.44054 | 2116 ft | 109 kts | 240° |
| 2026-05-04 15:23 | 50.45279 | 4.42978 | 2294 ft | 113 kts | 237° |
| 2026-05-04 15:23 | 50.45019 | 4.42309 | 2400 ft | 114 kts | 233° |
| 2026-05-04 15:24 | 50.44269 | 4.40636 | 2631 ft | 120 kts | 227° |
| 2026-05-04 15:24 | 50.42800 | 4.40294 | 2938 ft | 114 kts | 155° |
| 2026-05-04 15:25 | 50.42066 | 4.40750 | 3121 ft | 113 kts | 154° |
| 2026-05-04 15:25 | 50.41318 | 4.41219 | 3231 ft | 118 kts | 154° |
| 2026-05-04 15:25 | 50.40613 | 4.41892 | 3301 ft | 119 kts | 124° |
| 2026-05-04 15:26 | 50.40564 | 4.44444 | 3540 ft | 120 kts | 72° |
| 2026-05-04 15:26 | 50.40926 | 4.45643 | 3672 ft | 121 kts | 64° |
| 2026-05-04 15:26 | 50.41674 | 4.48043 | 3720 ft | 117 kts | 67° |
| 2026-05-04 15:27 | 50.42031 | 4.49116 | 3563 ft | 105 kts | 64° |
| 2026-05-04 15:27 | 50.42853 | 4.51160 | 3337 ft | 114 kts | 59° |
| 2026-05-04 15:28 | 50.43700 | 4.53183 | 3250 ft | 107 kts | 60° |
| 2026-05-04 15:28 | 50.44109 | 4.54145 | 3191 ft | 107 kts | 59° |
| 2026-05-04 15:28 | 50.44928 | 4.56124 | 3060 ft | 108 kts | 60° |
| 2026-05-04 15:29 | 50.45334 | 4.57127 | 3013 ft | 108 kts | 60° |
| 2026-05-04 15:30 | 50.47145 | 4.61129 | 2619 ft | 112 kts | 54° |
| 2026-05-04 15:30 | 50.48774 | 4.63649 | 2409 ft | 109 kts | 8° |
| 2026-05-04 15:31 | 50.50220 | 4.62981 | 2282 ft | 111 kts | 332° |
| 2026-05-04 15:31 | 50.50681 | 4.62084 | 2246 ft | 107 kts | 283° |
| 2026-05-04 15:32 | 50.50079 | 4.58856 | 2203 ft | 116 kts | 236° |
| 2026-05-04 15:32 | 50.49220 | 4.56398 | 2172 ft | 141 kts | 240° |
| 2026-05-04 15:33 | 50.48460 | 4.53777 | 1735 ft | 124 kts | 244° |
| 2026-05-04 15:34 | 50.47469 | 4.50384 | 1091 ft | 114 kts | 242° |
| 2026-05-04 15:34 | 50.47087 | 4.49097 | 901 ft | 142 kts | 244° |
| 2026-05-04 15:34 | 50.46350 | 4.46542 | 612 ft | 113 kts | 244° |
| 2026-05-04 15:35 | 50.45653 | 4.44132 | 750 ft | 125 kts | 244° |
| 2026-05-04 15:35 | 50.45338 | 4.43001 | 1173 ft | 106 kts | 242° |
| 2026-05-04 15:35 | 50.45044 | 4.41970 | 1422 ft | 106 kts | 249° |
| 2026-05-04 15:36 | 50.44266 | 4.40095 | 1765 ft | 110 kts | 194° |
| 2026-05-04 15:36 | 50.43526 | 4.40038 | 1954 ft | 110 kts | 169° |
| 2026-05-04 15:36 | 50.42778 | 4.40269 | 2133 ft | 111 kts | 165° |
| 2026-05-04 15:37 | 50.42042 | 4.40570 | 2346 ft | 109 kts | 160° |
| 2026-05-04 15:37 | 50.41348 | 4.40903 | 2617 ft | 103 kts | 158° |
| 2026-05-04 15:37 | 50.40727 | 4.41441 | 2775 ft | 105 kts | 126° |
| 2026-05-04 15:37 | 50.40595 | 4.42536 | 2933 ft | 109 kts | 83° |
| 2026-05-04 15:38 | 50.40846 | 4.43680 | 3058 ft | 115 kts | 68° |
| 2026-05-04 15:38 | 50.41169 | 4.44851 | 3162 ft | 119 kts | 67° |
| 2026-05-04 15:38 | 50.41521 | 4.46042 | 3250 ft | 123 kts | 66° |
| 2026-05-04 15:38 | 50.41904 | 4.47304 | 3197 ft | 132 kts | 66° |
| 2026-05-04 15:39 | 50.42312 | 4.48576 | 3130 ft | 131 kts | 65° |
| 2026-05-04 15:39 | 50.42734 | 4.49853 | 3035 ft | 133 kts | 63° |
| 2026-05-04 15:39 | 50.43680 | 4.52404 | 2480 ft | 136 kts | 60° |
| 2026-05-04 15:40 | 50.44184 | 4.53586 | 2218 ft | 127 kts | 59° |
| 2026-05-04 15:40 | 50.44655 | 4.54661 | 2081 ft | 111 kts | 59° |
| 2026-05-04 15:40 | 50.45074 | 4.55612 | 1950 ft | 103 kts | 58° |
| 2026-05-04 15:40 | 50.45490 | 4.56504 | 1869 ft | 99 kts | 56° |
| 2026-05-04 15:41 | 50.45897 | 4.57369 | 1788 ft | 98 kts | 56° |
| 2026-05-04 15:41 | 50.46304 | 4.58196 | 1739 ft | 94 kts | 54° |
| 2026-05-04 15:41 | 50.46732 | 4.58987 | 1690 ft | 95 kts | 49° |
| 2026-05-04 15:41 | 50.47201 | 4.59727 | 1740 ft | 96 kts | 38° |
| 2026-05-04 15:42 | 50.47847 | 4.59832 | 1790 ft | 97 kts | 341° |
| 2026-05-04 15:42 | 50.48487 | 4.59517 | 1833 ft | 99 kts | 343° |
| 2026-05-04 15:42 | 50.49117 | 4.59061 | 1858 ft | 101 kts | 323° |
| 2026-05-04 15:42 | 50.49559 | 4.58232 | 1914 ft | 99 kts | 293° |
| 2026-05-04 15:43 | 50.49642 | 4.57207 | 1941 ft | 97 kts | 245° |
| 2026-05-04 15:43 | 50.49267 | 4.56289 | 1893 ft | 103 kts | 231° |
| 2026-05-04 15:43 | 50.48857 | 4.55293 | 1802 ft | 114 kts | 238° |
| 2026-05-04 15:43 | 50.48534 | 4.54103 | 1644 ft | 124 kts | 244° |
| 2026-05-04 15:44 | 50.48183 | 4.52857 | 1523 ft | 127 kts | 242° |
| 2026-05-04 15:44 | 50.47805 | 4.51559 | 1359 ft | 130 kts | 244° |
| 2026-05-04 15:44 | 50.47449 | 4.50336 | 1083 ft | 122 kts | 243° |
| 2026-05-04 15:44 | 50.47115 | 4.49193 | 884 ft | 109 kts | 244° |
| 2026-05-04 15:45 | 50.46829 | 4.48195 | 777 ft | 86 kts | 243° |
| 2026-05-04 15:45 | 50.46608 | 4.47418 | 633 ft | 75 kts | 240° |
| 2026-05-04 15:45 | 50.46388 | 4.46674 | 593 ft | 74 kts | 241° |
| 2026-05-04 15:45 | 50.46202 | 4.46043 | 599 ft | 51 kts | 243° |
| 2026-05-04 15:46 | 50.46090 | 4.45644 | 606 ft | 31 kts | 252° |
| 2026-05-04 15:46 | 50.46046 | 4.45500 | 608 ft | 4 kts | 227° |
| 2026-05-04 15:46 | 50.46021 | 4.45478 | 608 ft | 4 kts | 191° |
| 2026-05-04 15:46 | 50.45996 | 4.45483 | 608 ft | 2 kts | 154° |
| 2026-05-04 15:47 | 50.45991 | 4.45487 | 608 ft | 2 kts | 152° |
| 2026-05-04 15:47 | 50.45983 | 4.45493 | 608 ft | 4 kts | 155° |
| 2026-05-04 15:47 | 50.45948 | 4.45510 | 608 ft | 9 kts | 184° |
| 2026-05-04 15:47 | 50.45892 | 4.45468 | 608 ft | 6 kts | 154° |
| 2026-05-04 15:48 | 50.45865 | 4.45465 | 607 ft | 3 kts | 256° |
| 2026-05-04 15:48 | 50.45864 | 4.45450 | 608 ft | 0 kts | 253° |